Fort Collins, CO (80528)

2:43 PM MST on November 24, 2014 (GMT -0700)
Timber Creek | Change Station
CLOSE
Current Station
Personal Weather Station
Location: Fort Collins, CO
Elevation: 4957 ft
Nearby Weather Stations
Active Advisory: High Wind Watch Active Notice: Public Information Statement

Elev 4957 ft 40.52 °N, 105.04 °W | Updated 4 minutes ago

Partly Cloudy
Partly Cloudy
38.7 °F
Feels Like 39 °F
N
2.0
Wind Variable Wind from NW
Gusts 11.0 mph

Today
High -- | Low -- °F
--% Chance of Precip.
Yesterday
High -- | Low -- °F
Precip. -- in
6:56 AM 4:36 PM
Waxing Crescent, 7% visible
Pressure 30.07 in
Visibility 10.0 miles
Clouds Clear
Windchill 39 °F
Dew Point 15 °F
Humidity 38%
Rainfall 0.00 in
Snow Depth Not available.
UV 1 out of 12
Pollen .10 out of 12
Air Quality Not available.
Flu Activity Not available.
METAR KFNL 242135Z AUTO 33019G24KT 10SM CLR 03/M11 A3007 RMK AO1

More Conditions Fewer Conditions

Pressure 30.07 in
Visibility 10.0 miles
Clouds Clear
Windchill 39 °F
Dew Point 15 °F
Humidity 38%
Rainfall 0.00 in
Snow Depth Not available.
UV 1 out of 12
Pollen .10 out of 12
Air Quality Not available.
Flu Activity Not available.
METAR KFNL 242135Z AUTO 33019G24KT 10SM CLR 03/M11 A3007 RMK AO1

More Conditions Fewer Conditions

Nowcast | as of 1:03 PM MST on November 24, 2014

Northwest winds at 20 to 30 mph along the Front Range will become more northerly this afternoon. Gusts to 50 mph can be expected in Larimer and Weld counties. Scattered snow showers will spread from the foothills and Wyoming border south into the Denver Metro area. Some areas will see snow accumulations of less than an inch. Temperatures will drop to near 30 with wind chills in the single digits.

×

10-Day Weather Forecast

Almanac

Astronomy

Nov. 24, 2014 Rise Set
Actual Time
Civil Twilight
Nautical Twilight
Astronomical Twilight
Moon
Length of Visible Light
Length of Day
Tomorrow will be .
, % of the Moon is Illuminated

Today's Extremes

State Highs State Lows

Community

WunderPhotos

Upload Photos

1,773,415 photos uploaded!

WunderBlogs® & News

Nearby

Air Quality

  Air Quality AQ Index Pollutant
Not available.

Snow Depth

Station Depth Elevation

Earthquake Activity

City Distance Mag. Time & Date
Minimum magnitude displayed is 2.5.

Coastal Water Temperatures

Place Temperature

Nearby Weather Stations